createdAt,value
2019-01-17T00:02:25.979Z,79.50
2019-01-17T00:05:19.157Z,78.40
2019-01-17T00:08:05.202Z,78.30
2019-01-17T00:11:02.855Z,75.60
2019-01-17T00:13:59.545Z,73.10
2019-01-17T00:16:46.337Z,69.90
2019-01-17T00:19:40.685Z,69.00
2019-01-17T00:22:31.303Z,67.60
2019-01-17T00:25:21.902Z,67.60
2019-01-17T00:28:24.367Z,67.70
2019-01-17T00:30:59.849Z,66.40
2019-01-17T00:33:59.082Z,65.20
2019-01-17T00:37:04.495Z,64.60
2019-01-17T00:39:48.089Z,65.00
2019-01-17T00:42:29.083Z,64.40
2019-01-17T00:45:17.409Z,64.50
2019-01-17T00:48:03.751Z,64.00
2019-01-17T00:50:49.727Z,63.20
2019-01-17T00:53:37.108Z,63.50
2019-01-17T00:56:36.492Z,62.90
2019-01-17T00:59:41.992Z,63.50
2019-01-17T01:02:23.011Z,62.90
2019-01-17T01:05:03.226Z,63.20
2019-01-17T01:07:54.435Z,62.80
2019-01-17T01:11:00.356Z,62.90
2019-01-17T01:13:46.552Z,62.60
2019-01-17T01:16:49.288Z,62.80
2019-01-17T01:19:30.816Z,62.90
2019-01-17T01:22:10.966Z,62.20
2019-01-17T01:24:58.337Z,62.30
2019-01-17T01:27:51.335Z,62.40
2019-01-17T01:30:41.721Z,62.40
2019-01-17T01:33:29.088Z,62.10
2019-01-17T01:36:22.613Z,60.80
2019-01-17T01:39:10.054Z,61.20
2019-01-17T01:41:56.396Z,60.90
2019-01-17T01:44:46.303Z,60.10
2019-01-17T01:47:30.848Z,59.90
2019-01-17T01:50:24.358Z,60.10
2019-01-17T01:53:07.054Z,60.10
2019-01-17T01:55:34.981Z,59.20
2019-01-17T01:58:27.436Z,59.20
2019-01-17T02:00:55.219Z,58.90
2019-01-17T02:03:23.031Z,57.80
2019-01-17T02:05:50.826Z,57.70
2019-01-17T02:08:18.766Z,57.70
2019-01-17T02:10:46.558Z,57.80
2019-01-17T02:13:14.382Z,57.80
2019-01-17T02:15:42.204Z,57.70
2019-01-17T02:18:10.084Z,57.70
2019-01-17T02:20:37.848Z,57.70
2019-01-17T02:23:05.613Z,57.80
2019-01-17T02:25:33.429Z,57.70
2019-01-17T02:28:01.192Z,58.00
2019-01-17T02:30:28.962Z,58.00
2019-01-17T02:32:56.758Z,58.90
2019-01-17T02:35:24.575Z,59.20
2019-01-17T02:37:52.382Z,59.50
2019-01-17T02:40:20.167Z,59.70
2019-01-17T02:42:47.994Z,60.80
2019-01-17T02:45:15.805Z,60.90
2019-01-17T02:47:43.569Z,62.50
2019-01-17T02:50:11.575Z,63.30
2019-01-17T02:52:39.364Z,64.00
2019-01-17T02:55:07.995Z,64.20
2019-01-17T02:57:35.993Z,64.00
2019-01-17T03:00:08.436Z,64.70
2019-01-17T03:02:36.194Z,64.60
2019-01-17T03:05:04.779Z,64.80
2019-01-17T03:07:32.712Z,64.50
2019-01-17T03:10:00.508Z,63.60
2019-01-17T03:12:28.291Z,62.90
2019-01-17T03:14:57.881Z,62.90
2019-01-17T03:17:45.411Z,63.00
2019-01-17T03:20:13.892Z,63.00
2019-01-17T03:22:41.741Z,63.00
2019-01-17T03:25:09.875Z,62.90
2019-01-17T03:28:08.425Z,62.40
2019-01-17T03:30:36.388Z,63.50
2019-01-17T03:33:04.214Z,62.60
2019-01-17T03:35:32.004Z,63.00
2019-01-17T03:37:59.824Z,62.40
2019-01-17T03:40:27.645Z,62.40
2019-01-17T03:42:55.463Z,62.70
2019-01-17T03:45:23.282Z,62.10
2019-01-17T03:47:51.118Z,61.80
2019-01-17T03:50:18.993Z,62.60
2019-01-17T03:52:46.791Z,62.40
2019-01-17T03:55:18.358Z,63.10
2019-01-17T03:57:46.189Z,62.90
2019-01-17T04:00:18.912Z,63.20
2019-01-17T04:02:46.750Z,63.10
2019-01-17T04:05:14.554Z,63.10
2019-01-17T04:07:42.368Z,63.90
2019-01-17T04:10:13.081Z,64.20
2019-01-17T04:12:41.166Z,64.70
2019-01-17T04:15:09.847Z,65.10
2019-01-17T04:17:37.655Z,66.50
2019-01-17T04:20:09.055Z,66.30
2019-01-17T04:22:36.839Z,66.90
2019-01-17T04:25:06.053Z,67.20
2019-01-17T04:27:33.832Z,67.90
2019-01-17T04:30:01.674Z,67.80
2019-01-17T04:32:29.498Z,67.60
2019-01-17T04:34:57.311Z,68.50
2019-01-17T04:37:25.125Z,68.50
2019-01-17T04:39:52.879Z,68.40
2019-01-17T04:42:20.650Z,69.30
2019-01-17T04:44:48.440Z,69.10
2019-01-17T04:47:16.224Z,68.60
2019-01-17T04:49:44.046Z,69.70
2019-01-17T04:52:11.790Z,68.50
2019-01-17T04:54:39.591Z,68.60
2019-01-17T04:57:12.503Z,68.60
2019-01-17T04:59:40.703Z,69.80
2019-01-17T05:02:10.929Z,70.90
2019-01-17T05:04:38.675Z,71.70
2019-01-17T05:07:06.463Z,71.70
2019-01-17T05:09:34.261Z,71.80
2019-01-17T05:12:02.084Z,72.90
2019-01-17T05:14:29.923Z,72.70
2019-01-17T05:16:57.958Z,73.00
2019-01-17T05:19:25.742Z,72.90
2019-01-17T05:21:53.479Z,72.50
2019-01-17T05:24:23.279Z,73.60
2019-01-17T05:26:51.362Z,73.60
2019-01-17T05:29:19.127Z,75.00
2019-01-17T05:31:46.853Z,75.30
2019-01-17T05:34:15.458Z,74.20
2019-01-17T05:37:13.948Z,75.40
2019-01-17T05:40:01.196Z,76.90
2019-01-17T05:42:29.002Z,77.50
2019-01-17T05:44:56.810Z,76.70
2019-01-17T05:47:24.557Z,76.70
2019-01-17T05:49:52.390Z,78.10
2019-01-17T05:52:20.174Z,78.80
2019-01-17T05:54:47.909Z,78.80
2019-01-17T05:57:15.690Z,78.80
2019-01-17T05:59:43.482Z,78.70
2019-01-17T06:02:11.246Z,78.70
2019-01-17T06:04:39.072Z,79.60
2019-01-17T06:07:07.013Z,79.20
2019-01-17T06:09:34.802Z,79.60
2019-01-17T06:12:02.554Z,80.50
2019-01-17T06:14:30.395Z,80.60
2019-01-17T06:16:58.152Z,80.40
2019-01-17T06:19:25.970Z,81.20
2019-01-17T06:21:53.737Z,81.10
2019-01-17T06:24:21.572Z,81.00
2019-01-17T06:27:02.471Z,82.00
2019-01-17T06:29:30.309Z,82.30
2019-01-17T06:31:58.186Z,81.60
2019-01-17T06:34:26.000Z,81.10
2019-01-17T06:36:53.805Z,81.60
2019-01-17T06:39:21.664Z,82.50
2019-01-17T06:41:49.402Z,82.50
2019-01-17T06:44:20.495Z,82.40
2019-01-17T06:46:46.919Z,83.50
2019-01-17T06:49:14.723Z,83.90
2019-01-17T06:51:42.515Z,84.00
2019-01-17T06:54:10.284Z,83.80
2019-01-17T06:56:38.050Z,83.80
2019-01-17T06:59:05.944Z,84.90
2019-01-17T07:01:33.712Z,84.80
2019-01-17T07:04:01.625Z,84.90
2019-01-17T07:06:29.451Z,85.70
2019-01-17T07:08:57.282Z,86.10
2019-01-17T07:11:25.113Z,86.80
2019-01-17T07:13:55.148Z,87.40
2019-01-17T07:16:22.963Z,87.50
2019-01-17T07:18:51.002Z,87.60
2019-01-17T07:21:18.780Z,88.40
2019-01-17T07:23:46.606Z,88.90
2019-01-17T07:26:14.463Z,89.00
2019-01-17T07:28:47.571Z,89.00
2019-01-17T07:31:15.499Z,89.00
2019-01-17T07:33:43.377Z,89.00
2019-01-17T07:36:11.195Z,88.90
2019-01-17T07:38:39.636Z,89.40
2019-01-17T07:41:07.472Z,89.00
2019-01-17T07:43:35.278Z,89.20
2019-01-17T07:46:03.098Z,89.00
2019-01-17T07:48:31.007Z,90.20
2019-01-17T07:50:58.875Z,89.60
2019-01-17T07:53:34.924Z,90.10
2019-01-17T07:56:04.333Z,89.20
2019-01-17T07:58:51.606Z,89.00
2019-01-17T08:01:19.457Z,89.00
2019-01-17T08:03:50.972Z,89.00
2019-01-17T08:06:18.835Z,88.90
2019-01-17T08:08:49.359Z,89.20
2019-01-17T08:11:17.193Z,89.20
2019-01-17T08:13:44.987Z,89.00
2019-01-17T08:16:12.924Z,88.60
2019-01-17T08:18:40.724Z,88.10
2019-01-17T08:21:08.502Z,89.00
2019-01-17T08:23:36.271Z,88.30
2019-01-17T08:26:04.153Z,88.10
2019-01-17T08:28:31.956Z,88.40
2019-01-17T08:30:59.748Z,87.60
2019-01-17T08:33:27.575Z,89.00
2019-01-17T08:35:55.336Z,89.20
2019-01-17T08:38:38.142Z,89.10
2019-01-17T08:41:05.975Z,87.90
2019-01-17T08:43:33.766Z,89.20
2019-01-17T08:46:21.077Z,89.20
2019-01-17T08:48:48.894Z,90.10
2019-01-17T08:51:17.993Z,89.20
2019-01-17T08:53:45.833Z,89.20
2019-01-17T08:56:13.649Z,89.20
2019-01-17T08:59:01.138Z,89.20
2019-01-17T09:01:28.939Z,89.60
2019-01-17T09:03:56.677Z,89.20
2019-01-17T09:06:24.518Z,89.50
2019-01-17T09:08:52.802Z,89.30
2019-01-17T09:11:20.611Z,89.30
2019-01-17T09:13:48.400Z,89.30
2019-01-17T09:16:16.182Z,89.80
2019-01-17T09:18:44.014Z,89.40
2019-01-17T09:21:11.805Z,89.40
2019-01-17T09:23:39.608Z,89.40
2019-01-17T09:26:07.840Z,89.50
2019-01-17T09:28:35.859Z,88.80
2019-01-17T09:31:03.858Z,89.00
2019-01-17T09:33:31.624Z,88.50
2019-01-17T09:35:59.470Z,86.90
2019-01-17T09:38:27.243Z,88.20
2019-01-17T09:40:55.013Z,87.20
2019-01-17T09:43:22.811Z,86.70
2019-01-17T09:45:50.597Z,86.60
2019-01-17T09:48:18.365Z,88.20
2019-01-17T09:50:46.126Z,86.40
2019-01-17T09:53:13.929Z,86.00
2019-01-17T09:55:41.662Z,84.70
2019-01-17T09:58:09.555Z,85.70
2019-01-17T10:00:37.393Z,86.40
2019-01-17T10:03:05.181Z,85.00
2019-01-17T10:05:32.995Z,86.10
2019-01-17T10:08:00.920Z,85.00
2019-01-17T10:10:28.694Z,84.80
2019-01-17T10:12:56.485Z,86.50
2019-01-17T10:16:10.466Z,86.90
2019-01-17T10:19:36.517Z,85.00
2019-01-17T10:22:43.840Z,85.80
2019-01-17T10:25:56.287Z,85.90
2019-01-17T10:29:08.200Z,84.90
2019-01-17T10:32:40.792Z,84.60
2019-01-17T10:35:48.482Z,83.60
2019-01-17T10:38:59.653Z,82.60
2019-01-17T10:42:38.025Z,83.60
2019-01-17T10:45:47.300Z,83.50
2019-01-17T10:49:21.562Z,83.50
2019-01-17T10:53:04.736Z,80.60
2019-01-17T10:56:41.267Z,79.80
2019-01-17T10:59:42.611Z,82.60
2019-01-17T11:02:49.424Z,82.80
2019-01-17T11:05:53.007Z,81.20
2019-01-17T11:09:19.724Z,82.00
2019-01-17T11:12:48.191Z,82.10
2019-01-17T11:16:05.921Z,82.00
2019-01-17T11:19:38.283Z,79.80
2019-01-17T11:23:15.435Z,77.30
2019-01-17T11:26:34.472Z,75.30
2019-01-17T11:29:35.643Z,75.50
2019-01-17T11:32:33.366Z,72.60
2019-01-17T11:35:59.658Z,71.80
2019-01-17T11:39:16.963Z,69.90
2019-01-17T11:42:30.605Z,69.90
2019-01-17T11:45:43.444Z,72.80
2019-01-17T11:49:03.806Z,74.80
2019-01-17T11:52:17.886Z,78.00
2019-01-17T11:55:41.422Z,79.60
2019-01-17T11:59:23.516Z,80.60
2019-01-17T12:02:59.595Z,77.50
2019-01-17T12:05:27.378Z,73.20
2019-01-17T12:07:55.244Z,65.20
2019-01-17T12:10:23.381Z,67.00
2019-01-17T12:12:51.553Z,69.00
2019-01-17T12:15:19.344Z,68.10
2019-01-17T12:17:47.144Z,70.90
2019-01-17T12:20:15.026Z,72.70
2019-01-17T12:22:42.834Z,72.50
2019-01-17T12:25:10.736Z,71.60
2019-01-17T12:27:42.551Z,65.70
2019-01-17T12:30:12.821Z,61.90
2019-01-17T12:32:40.627Z,57.10
2019-01-17T12:35:12.522Z,55.40
2019-01-17T12:37:40.317Z,57.00
2019-01-17T12:40:12.046Z,57.40
2019-01-17T12:42:39.887Z,57.90
2019-01-17T12:45:09.754Z,54.00
2019-01-17T12:47:37.707Z,53.30
2019-01-17T12:50:13.751Z,53.20
2019-01-17T12:52:41.577Z,55.00
2019-01-17T12:55:09.511Z,56.10
2019-01-17T12:57:37.278Z,59.30
2019-01-17T13:00:09.629Z,59.60
2019-01-17T13:02:37.411Z,59.50
2019-01-17T13:05:05.624Z,60.40
2019-01-17T13:08:03.850Z,59.40
2019-01-17T13:10:31.630Z,59.20
2019-01-17T13:12:59.452Z,58.80
2019-01-17T13:15:27.242Z,57.10
2019-01-17T13:18:26.213Z,56.50
2019-01-17T13:20:54.027Z,55.30
2019-01-17T13:23:21.801Z,54.40
2019-01-17T13:25:49.565Z,54.90
2019-01-17T13:28:17.467Z,55.00
2019-01-17T13:30:45.244Z,55.10
2019-01-17T13:33:13.003Z,55.70
2019-01-17T13:35:40.806Z,56.00
2019-01-17T13:38:08.590Z,56.80
2019-01-17T13:40:36.360Z,57.20
2019-01-17T13:43:04.077Z,57.30
2019-01-17T13:45:31.902Z,54.90
2019-01-17T13:47:59.738Z,53.50
2019-01-17T13:50:27.466Z,55.00
2019-01-17T13:52:55.300Z,54.70
2019-01-17T13:55:23.110Z,55.30
2019-01-17T13:58:10.374Z,57.10
2019-01-17T14:00:38.176Z,60.50
2019-01-17T14:03:05.979Z,59.10
2019-01-17T14:05:33.731Z,59.70
2019-01-17T14:08:01.674Z,58.70
2019-01-17T14:10:29.484Z,60.90
2019-01-17T14:12:57.298Z,67.00
2019-01-17T14:15:27.665Z,71.70
2019-01-17T14:17:55.460Z,73.60
2019-01-17T14:20:23.277Z,76.10
2019-01-17T14:22:51.082Z,78.60
2019-01-17T14:25:18.946Z,80.20
2019-01-17T14:27:46.782Z,81.20
2019-01-17T14:30:21.501Z,81.50
2019-01-17T14:32:49.347Z,83.00
2019-01-17T14:35:17.177Z,83.60
2019-01-17T14:37:50.303Z,85.40
2019-01-17T14:40:18.111Z,83.50
2019-01-17T14:42:45.948Z,85.20
2019-01-17T14:45:16.012Z,83.90
2019-01-17T14:48:14.519Z,84.50
2019-01-17T14:50:42.472Z,83.60
2019-01-17T14:53:10.296Z,78.60
2019-01-17T14:55:38.564Z,74.90
2019-01-17T14:58:46.290Z,75.00
2019-01-17T15:01:14.328Z,77.30
2019-01-17T15:03:42.159Z,75.20
2019-01-17T15:06:09.937Z,74.30
2019-01-17T15:08:57.218Z,76.00
2019-01-17T15:11:25.342Z,75.80
2019-01-17T15:13:53.160Z,76.20
2019-01-17T15:16:20.958Z,74.10
2019-01-17T15:18:48.734Z,73.80
2019-01-17T15:21:16.586Z,74.10
2019-01-17T15:23:44.390Z,74.70
2019-01-17T15:26:12.209Z,73.90
2019-01-17T15:28:39.993Z,73.90
2019-01-17T15:31:07.807Z,73.10
2019-01-17T15:33:35.621Z,72.70
2019-01-17T15:36:04.647Z,72.90
2019-01-17T15:38:32.507Z,72.80
2019-01-17T15:41:00.332Z,72.90
2019-01-17T15:43:28.152Z,72.70
2019-01-17T15:45:55.930Z,73.70
2019-01-17T15:48:28.768Z,73.40
2019-01-17T15:50:56.604Z,73.50
2019-01-17T15:53:25.735Z,74.10
2019-01-17T15:55:55.845Z,73.50
2019-01-17T15:58:24.725Z,73.90
2019-01-17T16:00:52.522Z,74.20
2019-01-17T16:03:20.317Z,74.60
2019-01-17T16:05:51.167Z,74.80
2019-01-17T16:08:18.992Z,73.90
2019-01-17T16:10:47.264Z,74.40
2019-01-17T16:13:15.126Z,74.60
2019-01-17T16:15:42.944Z,73.20
2019-01-17T16:18:15.902Z,73.30
2019-01-17T16:20:43.739Z,77.30
2019-01-17T16:23:11.932Z,81.80
2019-01-17T16:25:39.707Z,85.40
2019-01-17T16:28:07.666Z,86.70
2019-01-17T16:30:53.568Z,89.80
2019-01-17T16:33:21.448Z,89.60
2019-01-17T16:35:49.234Z,88.30
2019-01-17T16:38:20.011Z,87.90
2019-01-17T16:40:47.773Z,88.50
2019-01-17T16:43:15.642Z,89.60
2019-01-17T16:45:43.399Z,89.20
2019-01-17T16:48:11.286Z,89.40
2019-01-17T16:50:39.039Z,89.60
2019-01-17T16:53:06.911Z,88.40
2019-01-17T16:55:34.756Z,89.20
2019-01-17T16:58:02.994Z,89.40
2019-01-17T17:00:42.966Z,89.40
2019-01-17T17:03:10.779Z,90.00
2019-01-17T17:05:38.557Z,90.20
2019-01-17T17:08:06.701Z,90.00
2019-01-17T17:10:34.493Z,89.70
2019-01-17T17:13:02.280Z,90.10
2019-01-17T17:15:30.060Z,90.30
2019-01-17T17:17:58.033Z,90.00
2019-01-17T17:20:26.337Z,90.10
2019-01-17T17:22:54.143Z,89.80
2019-01-17T17:25:21.902Z,89.00
2019-01-17T17:27:55.294Z,89.50
2019-01-17T17:30:22.487Z,88.20
2019-01-17T17:32:50.260Z,88.00
2019-01-17T17:35:18.025Z,88.20
2019-01-17T17:37:45.861Z,87.20
2019-01-17T17:40:31.900Z,86.60
2019-01-17T17:42:59.674Z,87.60
2019-01-17T17:45:28.865Z,86.70
2019-01-17T17:47:59.465Z,86.60
2019-01-17T17:50:27.334Z,86.70
2019-01-17T17:52:55.051Z,86.60
2019-01-17T17:55:23.310Z,86.90
2019-01-17T17:58:05.096Z,86.70
2019-01-17T18:00:42.418Z,86.70
2019-01-17T18:03:10.295Z,86.70
2019-01-17T18:05:38.153Z,86.80
2019-01-17T18:08:11.141Z,86.80
2019-01-17T18:10:38.935Z,86.00
2019-01-17T18:13:06.793Z,86.50
2019-01-17T18:15:34.603Z,86.70
2019-01-17T18:18:22.131Z,85.90
2019-01-17T18:20:50.139Z,86.00
2019-01-17T18:23:17.961Z,84.50
2019-01-17T18:25:45.775Z,84.40
2019-01-17T18:28:13.562Z,84.70
2019-01-17T18:30:41.666Z,84.70
2019-01-17T18:33:09.647Z,85.70
2019-01-17T18:35:37.401Z,86.00
2019-01-17T18:38:05.238Z,86.40
2019-01-17T18:40:33.017Z,86.10
2019-01-17T18:43:00.900Z,86.80
2019-01-17T18:45:28.706Z,86.80
2019-01-17T18:48:06.659Z,86.80
2019-01-17T18:50:35.608Z,86.80
2019-01-17T18:53:03.720Z,86.90
2019-01-17T18:55:31.557Z,86.00
2019-01-17T18:57:59.442Z,84.80
2019-01-17T19:00:29.609Z,85.30
2019-01-17T19:02:57.627Z,82.90
2019-01-17T19:05:25.493Z,83.20
2019-01-17T19:08:01.282Z,82.90
2019-01-17T19:10:29.648Z,83.70
2019-01-17T19:12:57.630Z,84.10
2019-01-17T19:15:28.692Z,82.30
2019-01-17T19:17:57.301Z,84.20
2019-01-17T19:20:25.564Z,84.40
2019-01-17T19:22:53.597Z,84.50
2019-01-17T19:25:21.540Z,84.20
2019-01-17T19:27:50.190Z,85.40
2019-01-17T19:30:30.272Z,86.00
2019-01-17T19:33:00.512Z,87.40
2019-01-17T19:35:29.501Z,86.40
2019-01-17T19:37:58.080Z,87.00
2019-01-17T19:40:28.656Z,87.10
2019-01-17T19:42:56.667Z,85.50
2019-01-17T19:45:24.485Z,86.30
2019-01-17T19:47:56.544Z,84.80
2019-01-17T19:50:37.580Z,85.20
2019-01-17T19:53:12.277Z,82.70
2019-01-17T19:55:47.542Z,83.50
2019-01-17T19:58:21.847Z,81.70
2019-01-17T20:00:53.993Z,81.80
2019-01-17T20:03:33.124Z,81.30
2019-01-17T20:06:01.112Z,80.10
2019-01-17T20:08:35.681Z,81.20
2019-01-17T20:11:09.778Z,81.00
2019-01-17T20:13:37.712Z,80.90
2019-01-17T20:16:08.589Z,80.30
2019-01-17T20:18:36.956Z,79.20
2019-01-17T20:21:06.393Z,79.40
2019-01-17T20:23:37.580Z,77.50
2019-01-17T20:26:05.536Z,77.50
2019-01-17T20:28:40.679Z,76.20
2019-01-17T20:31:08.628Z,73.80
2019-01-17T20:33:36.570Z,74.30
2019-01-17T20:36:06.249Z,75.60
2019-01-17T20:38:34.678Z,76.00
2019-01-17T20:41:02.517Z,74.40
2019-01-17T20:43:30.498Z,73.30
2019-01-17T20:45:58.353Z,72.80
2019-01-17T20:48:26.351Z,70.40
2019-01-17T20:50:58.960Z,70.40
2019-01-17T20:53:29.945Z,70.40
2019-01-17T20:56:01.208Z,71.50
2019-01-17T20:58:31.128Z,71.30
2019-01-17T21:01:36.175Z,72.50
2019-01-17T21:04:06.411Z,72.90
2019-01-17T21:06:34.231Z,72.80
2019-01-17T21:09:21.578Z,70.30
2019-01-17T21:11:49.850Z,72.90
2019-01-17T21:14:17.728Z,70.80
2019-01-17T21:16:45.669Z,71.30
2019-01-17T21:19:13.534Z,71.30
2019-01-17T21:21:41.347Z,72.50
2019-01-17T21:24:09.153Z,72.10
2019-01-17T21:26:36.944Z,70.80
2019-01-17T21:29:04.761Z,71.70
2019-01-17T21:31:32.620Z,71.10
2019-01-17T21:34:00.500Z,71.80
2019-01-17T21:36:28.335Z,72.20
2019-01-17T21:38:56.562Z,71.80
2019-01-17T21:41:24.378Z,72.30
2019-01-17T21:43:52.231Z,72.30
2019-01-17T21:46:20.010Z,72.80
2019-01-17T21:48:53.076Z,74.70
2019-01-17T21:51:20.891Z,74.80
2019-01-17T21:53:48.752Z,74.40
2019-01-17T21:56:18.218Z,75.00
2019-01-17T21:58:56.243Z,75.00
2019-01-17T22:01:23.991Z,75.00
2019-01-17T22:03:51.897Z,74.90
2019-01-17T22:06:19.740Z,74.90
2019-01-17T22:08:47.764Z,75.70
2019-01-17T22:11:16.739Z,75.40
2019-01-17T22:13:44.755Z,77.00
2019-01-17T22:16:12.567Z,77.40
2019-01-17T22:18:45.753Z,77.50
2019-01-17T22:21:13.667Z,77.50
2019-01-17T22:23:41.507Z,77.90
2019-01-17T22:26:09.332Z,77.50
2019-01-17T22:29:38.081Z,77.90
2019-01-17T22:32:05.879Z,77.20
2019-01-17T22:34:34.538Z,76.10
2019-01-17T22:37:02.623Z,76.40
2019-01-17T22:39:30.478Z,76.90
2019-01-17T22:41:58.323Z,77.50
2019-01-17T22:44:26.315Z,76.60
2019-01-17T22:46:54.291Z,75.70
2019-01-17T22:49:22.084Z,75.50
2019-01-17T22:51:49.914Z,75.10
2019-01-17T22:54:17.747Z,75.20
2019-01-17T22:56:45.628Z,75.30
2019-01-17T22:59:13.488Z,75.60
2019-01-17T23:01:42.313Z,75.30
2019-01-17T23:04:10.168Z,75.30
2019-01-17T23:06:38.002Z,76.10
2019-01-17T23:09:07.843Z,75.40
2019-01-17T23:11:35.693Z,75.50
2019-01-17T23:14:03.762Z,75.20
2019-01-17T23:16:31.622Z,75.40
2019-01-17T23:18:59.460Z,75.40
2019-01-17T23:21:27.557Z,74.40
2019-01-17T23:23:55.339Z,75.40
2019-01-17T23:26:23.169Z,74.70
2019-01-17T23:28:50.960Z,75.40
2019-01-17T23:31:18.716Z,74.20
2019-01-17T23:33:47.130Z,75.60
2019-01-17T23:36:14.930Z,75.40
2019-01-17T23:38:43.174Z,75.80
2019-01-17T23:41:10.929Z,76.30
2019-01-17T23:43:38.798Z,76.20
2019-01-17T23:46:06.548Z,77.10
2019-01-17T23:48:34.496Z,78.70
2019-01-17T23:51:02.280Z,78.10
2019-01-17T23:53:30.129Z,78.70
2019-01-17T23:55:57.941Z,79.30
2019-01-17T23:58:25.896Z,78.60
